Time,TemperatureF,DewpointF,PressureIn,WindDirection,WindDirectionDegrees,WindSpeedMPH,WindSpeedGustMPH,Humidity,HourlyPrecipIn,Conditions,Clouds,dailyrainin,SoftwareType,DateUTC
2013-11-17 00:14:00,69.1,64.0,29.50,South,175,7.0,11.0,84,0.00,,,0.00,weatherlink.com 1.10,2013-11-17 06:14:00,
2013-11-17 00:29:00,69.2,64.0,29.49,South,176,4.0,11.0,84,0.00,,,0.00,weatherlink.com 1.10,2013-11-17 06:29:00,
2013-11-17 00:44:00,69.2,64.0,29.48,South,169,4.0,10.0,84,0.00,,,0.00,weatherlink.com 1.10,2013-11-17 06:44:00,
2013-11-17 00:59:00,69.1,65.0,29.48,SSE,159,5.0,15.0,85,0.00,,,0.00,weatherlink.com 1.10,2013-11-17 06:59:00,
2013-11-17 01:14:00,69.3,64.0,29.47,SE,143,4.0,12.0,84,0.00,,,0.00,weatherlink.com 1.10,2013-11-17 07:14:00,
2013-11-17 01:29:00,69.4,64.0,29.46,SE,139,4.0,10.0,84,0.00,,,0.00,weatherlink.com 1.10,2013-11-17 07:29:00,
2013-11-17 01:44:00,69.4,65.0,29.46,SSE,162,7.0,13.0,85,0.00,,,0.00,weatherlink.com 1.10,2013-11-17 07:44:00,
2013-11-17 01:59:00,69.7,65.0,29.46,SE,126,5.0,16.0,84,0.00,,,0.00,weatherlink.com 1.10,2013-11-17 07:59:00,
2013-11-17 02:14:00,70.3,65.0,29.46,SSW,209,7.0,14.0,83,0.00,,,0.00,weatherlink.com 1.10,2013-11-17 08:14:00,
2013-11-17 02:29:00,70.7,65.0,29.45,South,175,3.0,12.0,82,0.00,,,0.00,weatherlink.com 1.10,2013-11-17 08:29:00,
2013-11-17 02:44:00,71.1,65.0,29.45,SE,144,6.0,16.0,82,0.00,,,0.00,weatherlink.com 1.10,2013-11-17 08:44:00,
2013-11-17 02:59:00,71.4,65.0,29.44,SE,138,3.0,17.0,81,0.00,,,0.00,weatherlink.com 1.10,2013-11-17 08:59:00,
2013-11-17 03:14:00,71.5,65.0,29.44,SW,223,11.0,20.0,81,0.00,,,0.00,weatherlink.com 1.10,2013-11-17 09:14:00,
2013-11-17 03:29:00,71.6,66.0,29.44,SW,227,6.0,14.0,81,0.00,,,0.00,weatherlink.com 1.10,2013-11-17 09:29:00,
2013-11-17 03:44:00,72.0,66.0,29.44,SSE,159,6.0,22.0,80,0.00,,,0.00,weatherlink.com 1.10,2013-11-17 09:44:00,
2013-11-17 03:59:00,72.3,65.0,29.44,ESE,103,4.0,20.0,79,0.00,,,0.00,weatherlink.com 1.10,2013-11-17 09:59:00,
2013-11-17 04:14:00,72.3,65.0,29.44,SSE,148,8.0,22.0,79,0.00,,,0.00,weatherlink.com 1.10,2013-11-17 10:14:00,
2013-11-17 04:29:00,72.5,66.0,29.43,SSW,204,9.0,21.0,79,0.00,,,0.00,weatherlink.com 1.10,2013-11-17 10:29:00,
2013-11-17 04:44:00,72.4,66.0,29.42,South,173,7.0,19.0,79,0.00,,,0.00,weatherlink.com 1.10,2013-11-17 10:44:00,
2013-11-17 04:59:00,72.2,65.0,29.41,SSW,192,12.0,21.0,79,0.00,,,0.00,weatherlink.com 1.10,2013-11-17 10:59:00,
2013-11-17 05:14:00,72.3,65.0,29.40,SSW,196,8.0,23.0,79,0.00,,,0.00,weatherlink.com 1.10,2013-11-17 11:14:00,
2013-11-17 05:29:00,72.3,65.0,29.39,South,182,8.0,19.0,79,0.00,,,0.00,weatherlink.com 1.10,2013-11-17 11:29:00,
2013-11-17 05:44:00,72.1,65.0,29.40,South,191,5.0,19.0,79,0.00,,,0.00,weatherlink.com 1.10,2013-11-17 11:44:00,
2013-11-17 05:59:00,72.0,65.0,29.39,SSE,148,5.0,19.0,79,0.00,,,0.00,weatherlink.com 1.10,2013-11-17 11:59:00,
2013-11-17 06:14:00,71.8,65.0,29.39,South,179,8.0,19.0,79,0.00,,,0.00,weatherlink.com 1.10,2013-11-17 12:14:00,
2013-11-17 06:29:00,71.9,65.0,29.39,SSW,197,5.0,26.0,79,0.00,,,0.00,weatherlink.com 1.10,2013-11-17 12:29:00,
2013-11-17 06:44:00,72.0,65.0,29.40,SSW,193,13.0,20.0,78,0.00,,,0.00,weatherlink.com 1.10,2013-11-17 12:44:00,
2013-11-17 06:59:00,71.9,65.0,29.40,SSW,198,9.0,19.0,78,0.00,,,0.00,weatherlink.com 1.10,2013-11-17 12:59:00,
2013-11-17 07:15:00,72.0,65.0,29.40,SSW,200,8.0,23.0,78,0.00,,,0.00,weatherlink.com 1.10,2013-11-17 13:15:00,
2013-11-17 07:30:00,71.9,65.0,29.40,SSW,197,9.0,21.0,78,0.00,,,0.00,weatherlink.com 1.10,2013-11-17 13:30:00,
2013-11-17 07:45:00,72.7,64.0,29.41,SW,220,6.0,29.0,73,0.00,,,0.00,weatherlink.com 1.10,2013-11-17 13:45:00,
2013-11-17 08:00:00,73.1,64.0,29.41,SSW,203,9.0,22.0,73,0.00,,,0.00,weatherlink.com 1.10,2013-11-17 14:00:00,
2013-11-17 08:15:00,73.2,64.0,29.42,South,188,17.0,25.0,73,0.00,,,0.00,weatherlink.com 1.10,2013-11-17 14:15:00,
2013-11-17 08:30:00,73.8,64.0,29.43,South,175,11.0,32.0,71,0.01,,,0.01,weatherlink.com 1.10,2013-11-17 14:30:00,
2013-11-17 08:45:00,74.0,62.0,29.44,South,188,10.0,20.0,67,0.01,,,0.01,weatherlink.com 1.10,2013-11-17 14:45:00,
2013-11-17 09:00:00,73.9,60.0,29.46,SSW,207,9.0,27.0,63,0.01,,,0.01,weatherlink.com 1.10,2013-11-17 15:00:00,
2013-11-17 09:15:00,74.1,58.0,29.46,SW,225,12.0,29.0,58,0.01,,,0.01,weatherlink.com 1.10,2013-11-17 15:15:00,
2013-11-17 09:30:00,74.7,57.0,29.47,SW,236,20.0,28.0,55,0.00,,,0.01,weatherlink.com 1.10,2013-11-17 15:30:00,
2013-11-17 09:45:00,74.2,55.0,29.50,SSW,205,10.0,29.0,52,0.00,,,0.01,weatherlink.com 1.10,2013-11-17 15:45:00,
2013-11-17 10:00:00,73.9,56.0,29.51,WNW,303,7.0,24.0,53,0.00,,,0.01,weatherlink.com 1.10,2013-11-17 16:00:00,
2013-11-17 10:15:00,74.1,55.0,29.52,SW,226,15.0,32.0,51,0.00,,,0.01,weatherlink.com 1.10,2013-11-17 16:15:00,
2013-11-17 10:30:00,74.2,53.0,29.53,WSW,242,9.0,24.0,48,0.00,,,0.01,weatherlink.com 1.10,2013-11-17 16:30:00,
2013-11-17 10:45:00,74.3,51.0,29.55,WSW,244,15.0,20.0,44,0.00,,,0.01,weatherlink.com 1.10,2013-11-17 16:45:00,
2013-11-17 11:00:00,73.7,52.0,29.55,SW,228,3.0,22.0,46,0.00,,,0.01,weatherlink.com 1.10,2013-11-17 17:00:00,
2013-11-17 11:15:00,73.1,50.0,29.57,SSW,205,7.0,25.0,44,0.00,,,0.01,weatherlink.com 1.10,2013-11-17 17:15:00,
2013-11-17 11:30:00,72.5,47.0,29.58,WNW,290,8.0,20.0,41,0.00,,,0.01,weatherlink.com 1.10,2013-11-17 17:30:00,
2013-11-17 11:45:00,71.0,45.0,29.58,ENE,69,2.0,18.0,39,0.00,,,0.01,weatherlink.com 1.10,2013-11-17 17:45:00,
2013-11-17 12:00:00,71.1,42.0,29.60,West,280,8.0,14.0,35,0.00,,,0.01,weatherlink.com 1.10,2013-11-17 18:00:00,
2013-11-17 12:15:00,70.5,41.0,29.60,SW,215,1.0,18.0,34,0.00,,,0.01,weatherlink.com 1.10,2013-11-17 18:15:00,
2013-11-17 12:30:00,70.6,38.0,29.60,WNW,292,10.0,17.0,30,0.00,,,0.01,weatherlink.com 1.10,2013-11-17 18:30:00,
2013-11-17 12:45:00,70.5,39.0,29.60,SW,224,4.0,15.0,32,0.00,,,0.01,weatherlink.com 1.10,2013-11-17 18:45:00,
2013-11-17 13:00:00,70.0,37.0,29.60,SW,225,10.0,17.0,30,0.00,,,0.01,weatherlink.com 1.10,2013-11-17 19:00:00,
2013-11-17 13:15:00,70.3,36.0,29.61,WSW,253,2.0,14.0,29,0.00,,,0.01,weatherlink.com 1.10,2013-11-17 19:15:00,
2013-11-17 13:30:00,70.7,36.0,29.61,West,267,7.0,15.0,28,0.00,,,0.01,weatherlink.com 1.10,2013-11-17 19:30:00,
2013-11-17 13:45:00,70.4,37.0,29.61,WNW,284,9.0,16.0,30,0.00,,,0.01,weatherlink.com 1.10,2013-11-17 19:45:00,
2013-11-17 14:00:00,70.5,35.0,29.62,SW,236,4.0,12.0,27,0.00,,,0.01,weatherlink.com 1.10,2013-11-17 20:00:00,
2013-11-17 14:15:00,70.0,37.0,29.63,NW,321,2.0,20.0,30,0.00,,,0.01,weatherlink.com 1.10,2013-11-17 20:15:00,
2013-11-17 14:30:00,70.1,36.0,29.64,SW,235,4.0,13.0,29,0.00,,,0.01,weatherlink.com 1.10,2013-11-17 20:30:00,
2013-11-17 14:45:00,70.4,37.0,29.64,SW,214,2.0,17.0,30,0.00,,,0.01,weatherlink.com 1.10,2013-11-17 20:45:00,
2013-11-17 15:00:00,70.2,37.0,29.65,WNW,298,10.0,17.0,30,0.00,,,0.01,weatherlink.com 1.10,2013-11-17 21:00:00,
2013-11-17 15:15:00,70.6,37.0,29.65,NW,304,2.0,18.0,29,0.00,,,0.01,weatherlink.com 1.10,2013-11-17 21:15:00,
2013-11-17 15:31:00,70.0,34.0,29.66,WNW,302,4.0,16.0,27,0.00,,,0.01,weatherlink.com 1.10,2013-11-17 21:31:00,
2013-11-17 15:46:00,69.8,34.0,29.67,NW,309,4.0,11.0,27,0.00,,,0.01,weatherlink.com 1.10,2013-11-17 21:46:00,
2013-11-17 16:01:00,69.5,33.0,29.68,NW,310,12.0,14.0,26,0.00,,,0.01,weatherlink.com 1.10,2013-11-17 22:01:00,
2013-11-17 16:16:00,68.3,30.0,29.69,NW,313,5.0,20.0,24,0.00,,,0.01,weatherlink.com 1.10,2013-11-17 22:16:00,
2013-11-17 16:31:00,67.4,28.0,29.70,West,270,12.0,19.0,23,0.00,,,0.01,weatherlink.com 1.10,2013-11-17 22:31:00,
2013-11-17 16:46:00,66.6,30.0,29.72,SW,229,5.0,10.0,25,0.00,,,0.01,weatherlink.com 1.10,2013-11-17 22:46:00,
2013-11-17 17:01:00,66.0,28.0,29.73,West,259,2.0,12.0,24,0.00,,,0.01,weatherlink.com 1.10,2013-11-17 23:01:00,
2013-11-17 17:16:00,65.3,28.0,29.74,WNW,299,3.0,15.0,25,0.00,,,0.01,weatherlink.com 1.10,2013-11-17 23:16:00,
2013-11-17 17:31:00,64.6,28.0,29.74,SW,222,5.0,10.0,25,0.00,,,0.01,weatherlink.com 1.10,2013-11-17 23:31:00,
2013-11-17 17:46:00,64.3,26.0,29.76,WNW,288,4.0,11.0,23,0.00,,,0.01,weatherlink.com 1.10,2013-11-17 23:46:00,
2013-11-17 18:01:00,63.9,24.0,29.76,SW,221,7.0,13.0,22,0.00,,,0.01,weatherlink.com 1.10,2013-11-18 00:01:00,
2013-11-17 18:16:00,63.1,25.0,29.78,WNW,292,2.0,11.0,23,0.00,,,0.01,weatherlink.com 1.10,2013-11-18 00:16:00,
2013-11-17 18:31:00,62.4,25.0,29.78,WSW,256,0.0,11.0,24,0.00,,,0.01,weatherlink.com 1.10,2013-11-18 00:31:00,
2013-11-17 18:46:00,61.8,24.0,29.79,WSW,237,2.0,11.0,24,0.00,,,0.01,weatherlink.com 1.10,2013-11-18 00:46:00,
2013-11-17 19:01:00,61.4,25.0,29.81,WNW,294,1.0,12.0,25,0.00,,,0.01,weatherlink.com 1.10,2013-11-18 01:01:00,
2013-11-17 19:16:00,60.8,25.0,29.82,WNW,302,3.0,11.0,25,0.00,,,0.01,weatherlink.com 1.10,2013-11-18 01:16:00,
2013-11-17 19:31:00,59.8,26.0,29.82,West,275,1.0,10.0,27,0.00,,,0.01,weatherlink.com 1.10,2013-11-18 01:31:00,
2013-11-17 19:46:00,58.5,24.0,29.83,West,264,0.0,4.0,27,0.00,,,0.01,weatherlink.com 1.10,2013-11-18 01:46:00,
2013-11-17 20:02:00,57.6,24.0,29.85,WSW,246,1.0,10.0,27,0.00,,,0.01,weatherlink.com 1.10,2013-11-18 02:02:00,
2013-11-17 20:17:00,57.4,23.0,29.86,WNW,303,3.0,9.0,27,0.00,,,0.01,weatherlink.com 1.10,2013-11-18 02:17:00,
2013-11-17 20:32:00,56.9,24.0,29.86,NW,313,0.0,11.0,28,0.00,,,0.01,weatherlink.com 1.10,2013-11-18 02:32:00,
2013-11-17 20:47:00,56.3,25.0,29.87,WNW,283,3.0,9.0,30,0.00,,,0.01,weatherlink.com 1.10,2013-11-18 02:47:00,
2013-11-17 21:02:00,55.6,24.0,29.88,NW,307,3.0,13.0,30,0.00,,,0.01,weatherlink.com 1.10,2013-11-18 03:02:00,
2013-11-17 21:17:00,55.3,25.0,29.89,WNW,300,3.0,9.0,31,0.00,,,0.01,weatherlink.com 1.10,2013-11-18 03:17:00,
2013-11-17 21:32:00,54.9,25.0,29.90,WNW,292,2.0,8.0,32,0.00,,,0.01,weatherlink.com 1.10,2013-11-18 03:32:00,
2013-11-17 21:47:00,54.6,26.0,29.91,West,260,2.0,7.0,33,0.00,,,0.01,weatherlink.com 1.10,2013-11-18 03:47:00,
2013-11-17 22:02:00,54.1,26.0,29.91,WNW,284,1.0,8.0,34,0.00,,,0.01,weatherlink.com 1.10,2013-11-18 04:02:00,
2013-11-17 22:17:00,53.4,26.0,29.92,NW,312,2.0,9.0,35,0.00,,,0.01,weatherlink.com 1.10,2013-11-18 04:17:00,
2013-11-17 22:32:00,52.8,27.0,29.92,NW,317,0.0,6.0,37,0.00,,,0.01,weatherlink.com 1.10,2013-11-18 04:32:00,
2013-11-17 22:47:00,52.5,27.0,29.92,WNW,299,3.0,10.0,38,0.00,,,0.01,weatherlink.com 1.10,2013-11-18 04:47:00,
2013-11-17 23:02:00,52.6,29.0,29.93,WNW,298,2.0,10.0,40,0.00,,,0.01,weatherlink.com 1.10,2013-11-18 05:02:00,
2013-11-17 23:17:00,52.5,29.0,29.93,NW,326,3.0,8.0,40,0.00,,,0.01,weatherlink.com 1.10,2013-11-18 05:17:00,
2013-11-17 23:32:00,52.2,30.0,29.94,WNW,297,4.0,10.0,42,0.00,,,0.01,weatherlink.com 1.10,2013-11-18 05:32:00,
2013-11-17 23:47:00,51.8,30.0,29.95,West,265,4.0,12.0,44,0.00,,,0.01,weatherlink.com 1.10,2013-11-18 05:47:00,